createdAt,value
2023-02-03T00:00:03.207Z,7.10
2023-02-03T00:01:02.647Z,7.10
2023-02-03T00:02:02.713Z,7.00
2023-02-03T00:03:02.791Z,7.00
2023-02-03T00:04:02.929Z,7.00
2023-02-03T00:05:02.371Z,7.00
2023-02-03T00:06:02.321Z,7.00
2023-02-03T00:07:02.149Z,7.10
2023-02-03T00:08:02.364Z,7.10
2023-02-03T00:09:01.943Z,7.10
2023-02-03T00:10:02.449Z,7.10
2023-02-03T00:11:02.239Z,7.10
2023-02-03T00:12:02.286Z,6.80
2023-02-03T00:13:02.181Z,6.80
2023-02-03T00:14:02.197Z,6.80
2023-02-03T00:15:02.637Z,6.80
2023-02-03T00:16:02.707Z,6.80
2023-02-03T00:17:02.803Z,6.70
2023-02-03T00:18:02.810Z,6.70
2023-02-03T00:19:02.729Z,6.70
2023-02-03T00:20:02.954Z,6.70
2023-02-03T00:21:02.838Z,6.70
2023-02-03T00:22:03.305Z,6.30
2023-02-03T00:23:02.960Z,6.30
2023-02-03T00:24:02.878Z,6.30
2023-02-03T00:25:03.199Z,6.30
2023-02-03T00:26:02.858Z,6.30
2023-02-03T00:27:02.955Z,7.00
2023-02-03T00:28:03.423Z,7.00
2023-02-03T00:29:02.937Z,7.00
2023-02-03T00:30:02.745Z,7.00
2023-02-03T00:31:03.047Z,7.00
2023-02-03T00:32:02.406Z,7.30
2023-02-03T00:33:02.214Z,7.30
2023-02-03T00:34:02.672Z,7.30
2023-02-03T00:35:02.208Z,7.30
2023-02-03T00:36:02.671Z,7.30
2023-02-03T00:37:02.516Z,6.80
2023-02-03T00:38:02.848Z,6.80
2023-02-03T00:39:02.759Z,6.80
2023-02-03T00:40:02.974Z,6.80
2023-02-03T00:41:02.792Z,6.80
2023-02-03T00:42:02.937Z,6.40
2023-02-03T00:43:02.873Z,6.40
2023-02-03T00:44:02.770Z,6.40
2023-02-03T00:45:02.717Z,6.40
2023-02-03T00:46:03.023Z,6.40
2023-02-03T00:47:03.347Z,6.10
2023-02-03T00:48:02.994Z,6.10
2023-02-03T00:49:03.491Z,6.10
2023-02-03T00:50:03.200Z,6.10
2023-02-03T00:51:02.890Z,6.10
2023-02-03T00:52:02.525Z,5.90
2023-02-03T00:53:02.799Z,5.90
2023-02-03T00:54:02.727Z,5.90
2023-02-03T00:55:02.444Z,5.90
2023-02-03T00:56:02.715Z,5.90
2023-02-03T00:57:02.520Z,6.20
2023-02-03T00:58:02.827Z,6.20
2023-02-03T00:59:02.670Z,6.20
2023-02-03T01:00:02.539Z,6.20
2023-02-03T01:01:02.527Z,6.20
2023-02-03T01:02:03.428Z,5.20
2023-02-03T01:03:03.204Z,5.20
2023-02-03T01:04:03.356Z,5.20
2023-02-03T01:05:03.065Z,5.20
2023-02-03T01:06:03.413Z,5.20
2023-02-03T01:07:03.719Z,4.90
2023-02-03T01:08:03.874Z,4.90
2023-02-03T01:09:03.519Z,4.90
2023-02-03T01:10:03.519Z,4.90
2023-02-03T01:11:03.368Z,4.90
2023-02-03T01:12:03.432Z,4.90
2023-02-03T01:13:03.314Z,4.90
2023-02-03T01:14:03.421Z,4.90
2023-02-03T01:15:02.835Z,4.90
2023-02-03T01:16:03.341Z,4.90
2023-02-03T01:17:03.426Z,4.70
2023-02-03T01:18:03.423Z,4.70
2023-02-03T01:19:03.458Z,4.70
2023-02-03T01:20:03.401Z,4.70
2023-02-03T01:21:03.217Z,4.70
2023-02-03T01:22:03.557Z,4.80
2023-02-03T01:23:03.403Z,4.80
2023-02-03T01:24:03.359Z,4.80
2023-02-03T01:25:03.089Z,4.80
2023-02-03T01:26:03.466Z,4.80
2023-02-03T01:27:02.979Z,4.60
2023-02-03T01:28:03.515Z,4.60
2023-02-03T01:29:03.159Z,4.60
2023-02-03T01:30:02.967Z,4.60
2023-02-03T01:31:03.403Z,4.60
2023-02-03T01:32:03.209Z,4.00
2023-02-03T01:33:03.208Z,4.00
2023-02-03T01:34:02.720Z,4.00
2023-02-03T01:35:02.733Z,4.00
2023-02-03T01:36:02.771Z,4.00
2023-02-03T01:37:03.325Z,3.90
2023-02-03T01:38:03.226Z,3.90
2023-02-03T01:39:03.820Z,3.90
2023-02-03T01:40:03.432Z,3.90
2023-02-03T01:41:03.761Z,3.90
2023-02-03T01:42:03.008Z,4.20
2023-02-03T01:43:02.765Z,4.20
2023-02-03T01:44:02.713Z,4.20
2023-02-03T01:45:02.959Z,4.20
2023-02-03T01:46:02.795Z,4.20
2023-02-03T01:47:03.489Z,4.00
2023-02-03T01:48:03.349Z,4.00
2023-02-03T01:49:03.703Z,4.00
2023-02-03T01:50:03.337Z,4.00
2023-02-03T01:51:03.126Z,4.00
2023-02-03T01:52:02.835Z,3.60
2023-02-03T01:53:02.912Z,3.60
2023-02-03T01:54:02.990Z,3.60
2023-02-03T01:55:02.472Z,3.60
2023-02-03T01:56:02.788Z,3.60
2023-02-03T01:57:03.301Z,3.80
2023-02-03T01:58:03.705Z,3.80
2023-02-03T01:59:03.144Z,3.80
2023-02-03T02:00:03.651Z,3.80
2023-02-03T02:01:03.282Z,3.80
2023-02-03T02:02:01.983Z,3.50
2023-02-03T02:03:02.083Z,3.50
2023-02-03T02:04:01.979Z,3.50
2023-02-03T02:05:01.738Z,3.50
2023-02-03T02:06:01.917Z,3.50
2023-02-03T02:07:02.116Z,3.80
2023-02-03T02:08:02.637Z,3.80
2023-02-03T02:09:02.570Z,3.80
2023-02-03T02:10:02.083Z,3.80
2023-02-03T02:11:02.164Z,3.80
2023-02-03T02:12:01.994Z,3.80
2023-02-03T02:13:02.258Z,3.80
2023-02-03T02:14:01.825Z,3.80
2023-02-03T02:15:02.102Z,3.80
2023-02-03T02:16:02.104Z,3.80
2023-02-03T02:17:02.204Z,3.40
2023-02-03T02:18:02.274Z,3.40
2023-02-03T02:19:02.006Z,3.40
2023-02-03T02:20:02.465Z,3.40
2023-02-03T02:21:02.472Z,3.40
2023-02-03T02:22:02.625Z,3.00
2023-02-03T02:23:02.551Z,3.00
2023-02-03T02:24:02.374Z,3.00
2023-02-03T02:25:02.634Z,3.00
2023-02-03T02:26:02.390Z,3.00
2023-02-03T02:27:02.321Z,3.10
2023-02-03T02:28:02.020Z,3.10
2023-02-03T02:29:02.243Z,3.10
2023-02-03T02:30:01.840Z,3.10
2023-02-03T02:31:02.466Z,3.10
2023-02-03T02:32:02.904Z,3.40
2023-02-03T02:33:02.348Z,3.40
2023-02-03T02:34:03.748Z,3.40
2023-02-03T02:35:02.820Z,3.40
2023-02-03T02:36:02.470Z,3.40
2023-02-03T02:37:02.001Z,2.80
2023-02-03T02:38:01.774Z,2.80
2023-02-03T02:39:01.774Z,2.80
2023-02-03T02:40:01.619Z,2.80
2023-02-03T02:41:01.752Z,2.80
2023-02-03T02:42:02.385Z,3.40
2023-02-03T02:43:01.752Z,3.40
2023-02-03T02:44:02.074Z,3.40
2023-02-03T02:45:01.847Z,3.40
2023-02-03T02:46:02.116Z,3.40
2023-02-03T02:47:02.624Z,3.20
2023-02-03T02:48:02.280Z,3.20
2023-02-03T02:49:02.494Z,3.20
2023-02-03T02:50:02.242Z,3.20
2023-02-03T02:51:02.315Z,3.20
2023-02-03T02:52:01.397Z,3.10
2023-02-03T02:53:01.792Z,3.10
2023-02-03T02:54:01.867Z,3.10
2023-02-03T02:55:01.680Z,3.10
2023-02-03T02:56:01.901Z,3.10
2023-02-03T02:57:01.714Z,2.90
2023-02-03T02:58:02.289Z,2.90
2023-02-03T02:59:02.043Z,2.90
2023-02-03T03:00:02.291Z,2.90
2023-02-03T03:01:01.706Z,2.90
2023-02-03T03:02:02.449Z,3.10
2023-02-03T03:03:02.666Z,3.10
2023-02-03T03:04:02.355Z,3.10
2023-02-03T03:05:02.907Z,3.10
2023-02-03T03:06:02.520Z,3.10
2023-02-03T03:07:02.474Z,3.00
2023-02-03T03:08:02.395Z,3.00
2023-02-03T03:09:03.022Z,3.00
2023-02-03T03:10:02.719Z,3.00
2023-02-03T03:11:02.497Z,3.00
2023-02-03T03:12:02.916Z,2.70
2023-02-03T03:13:02.981Z,2.70
2023-02-03T03:14:02.933Z,2.70
2023-02-03T03:15:02.525Z,2.70
2023-02-03T03:16:03.087Z,2.70
2023-02-03T03:17:02.809Z,3.10
2023-02-03T03:18:02.952Z,3.10
2023-02-03T03:19:03.348Z,3.10
2023-02-03T03:20:02.997Z,3.10
2023-02-03T03:21:03.290Z,3.10
2023-02-03T03:22:02.759Z,3.00
2023-02-03T03:23:02.766Z,3.00
2023-02-03T03:24:02.348Z,3.00
2023-02-03T03:25:02.271Z,3.00
2023-02-03T03:26:02.817Z,3.00
2023-02-03T03:27:02.874Z,2.70
2023-02-03T03:28:03.105Z,2.70
2023-02-03T03:29:02.944Z,2.70
2023-02-03T03:30:02.499Z,2.70
2023-02-03T03:31:03.036Z,2.70
2023-02-03T03:32:03.391Z,2.60
2023-02-03T03:33:03.089Z,2.60
2023-02-03T03:34:02.878Z,2.60
2023-02-03T03:35:02.683Z,2.60
2023-02-03T03:36:03.226Z,2.60
2023-02-03T03:37:03.458Z,2.40
2023-02-03T03:38:03.042Z,2.40
2023-02-03T03:39:02.872Z,2.40
2023-02-03T03:40:02.944Z,2.40
2023-02-03T03:41:03.277Z,2.40
2023-02-03T03:42:02.296Z,2.40
2023-02-03T03:43:02.216Z,2.40
2023-02-03T03:44:02.103Z,2.40
2023-02-03T03:45:02.546Z,2.40
2023-02-03T03:46:02.541Z,2.40
2023-02-03T03:47:02.409Z,2.50
2023-02-03T03:48:02.964Z,2.50
2023-02-03T03:49:02.546Z,2.50
2023-02-03T03:50:02.491Z,2.50
2023-02-03T03:51:02.561Z,2.50
2023-02-03T03:52:03.044Z,2.70
2023-02-03T03:53:03.043Z,2.70
2023-02-03T03:54:03.289Z,2.70
2023-02-03T03:55:03.142Z,2.70
2023-02-03T03:56:03.430Z,2.70
2023-02-03T03:57:02.717Z,2.60
2023-02-03T03:58:02.583Z,2.60
2023-02-03T03:59:02.828Z,2.60
2023-02-03T04:00:02.455Z,2.60
2023-02-03T04:01:02.402Z,2.60
2023-02-03T04:02:03.015Z,2.70
2023-02-03T04:03:03.281Z,2.70
2023-02-03T04:04:03.060Z,2.70
2023-02-03T04:05:03.170Z,2.70
2023-02-03T04:06:03.036Z,2.70
2023-02-03T04:07:02.438Z,2.60
2023-02-03T04:08:03.015Z,2.60
2023-02-03T04:09:02.457Z,2.60
2023-02-03T04:10:02.882Z,2.60
2023-02-03T04:11:02.589Z,2.60
2023-02-03T04:12:03.115Z,2.90
2023-02-03T04:13:03.558Z,2.90
2023-02-03T04:14:03.317Z,2.90
2023-02-03T04:15:03.559Z,2.90
2023-02-03T04:16:03.144Z,2.90
2023-02-03T04:17:02.701Z,2.80
2023-02-03T04:18:02.616Z,2.80
2023-02-03T04:19:02.408Z,2.80
2023-02-03T04:20:02.598Z,2.80
2023-02-03T04:21:02.935Z,2.80
2023-02-03T04:22:03.389Z,2.90
2023-02-03T04:23:03.211Z,2.90
2023-02-03T04:24:03.596Z,2.90
2023-02-03T04:25:03.652Z,2.90
2023-02-03T04:26:02.983Z,2.90
2023-02-03T04:27:04.914Z,2.80
2023-02-03T04:28:02.522Z,2.80
2023-02-03T04:29:02.231Z,2.80
2023-02-03T04:30:02.168Z,2.80
2023-02-03T04:31:02.919Z,2.80
2023-02-03T04:32:02.529Z,3.20
2023-02-03T04:33:02.677Z,3.20
2023-02-03T04:34:02.562Z,3.20
2023-02-03T04:35:02.214Z,3.20
2023-02-03T04:36:02.721Z,3.20
2023-02-03T04:37:02.704Z,3.00
2023-02-03T04:38:03.319Z,3.00
2023-02-03T04:39:02.950Z,3.00
2023-02-03T04:40:02.872Z,3.00
2023-02-03T04:41:02.681Z,3.00
2023-02-03T04:42:03.483Z,3.20
2023-02-03T04:43:03.347Z,3.20
2023-02-03T04:44:03.151Z,3.20
2023-02-03T04:45:03.091Z,3.20
2023-02-03T04:46:03.563Z,3.20
2023-02-03T04:47:02.482Z,2.90
2023-02-03T04:48:02.789Z,2.90
2023-02-03T04:49:02.650Z,2.90
2023-02-03T04:50:03.065Z,2.90
2023-02-03T04:51:03.149Z,2.90
2023-02-03T04:52:02.567Z,2.90
2023-02-03T04:53:02.395Z,2.90
2023-02-03T04:54:02.591Z,2.90
2023-02-03T04:55:02.480Z,2.90
2023-02-03T04:56:02.579Z,2.90
2023-02-03T04:57:03.360Z,3.10
2023-02-03T04:58:02.999Z,3.10
2023-02-03T04:59:02.953Z,3.10
2023-02-03T05:00:02.732Z,3.10
2023-02-03T05:01:02.761Z,3.10
2023-02-03T05:02:02.363Z,2.80
2023-02-03T05:03:02.410Z,2.80
2023-02-03T05:04:02.030Z,2.80
2023-02-03T05:05:01.898Z,2.80
2023-02-03T05:06:02.249Z,2.80
2023-02-03T05:07:02.403Z,2.40
2023-02-03T05:08:02.292Z,2.40
2023-02-03T05:09:02.768Z,2.40
2023-02-03T05:10:02.884Z,2.40
2023-02-03T05:11:02.631Z,2.40
2023-02-03T05:12:01.979Z,2.60
2023-02-03T05:13:02.029Z,2.60
2023-02-03T05:14:01.489Z,2.60
2023-02-03T05:15:01.964Z,2.60
2023-02-03T05:16:01.633Z,2.60
2023-02-03T05:17:02.190Z,2.50
2023-02-03T05:18:02.796Z,2.50
2023-02-03T05:19:02.350Z,2.50
2023-02-03T05:20:02.579Z,2.50
2023-02-03T05:21:02.382Z,2.50
2023-02-03T05:22:01.982Z,2.30
2023-02-03T05:23:01.604Z,2.30
2023-02-03T05:24:02.097Z,2.30
2023-02-03T05:25:01.738Z,2.30
2023-02-03T05:26:01.604Z,2.30
2023-02-03T05:27:02.586Z,2.50
2023-02-03T05:28:02.632Z,2.50
2023-02-03T05:29:02.211Z,2.50
2023-02-03T05:30:02.517Z,2.50
2023-02-03T05:31:02.459Z,2.50
2023-02-03T05:32:02.783Z,2.30
2023-02-03T05:33:02.420Z,2.30
2023-02-03T05:34:02.781Z,2.30
2023-02-03T05:35:02.274Z,2.30
2023-02-03T05:36:02.294Z,2.30
2023-02-03T05:37:02.790Z,2.20
2023-02-03T05:38:02.939Z,2.20
2023-02-03T05:39:02.278Z,2.20
2023-02-03T05:40:02.554Z,2.20
2023-02-03T05:41:02.419Z,2.20
2023-02-03T05:42:02.874Z,2.50
2023-02-03T05:43:02.896Z,2.50
2023-02-03T05:44:02.573Z,2.50
2023-02-03T05:45:02.389Z,2.50
2023-02-03T05:46:02.937Z,2.50
2023-02-03T05:47:01.890Z,2.40
2023-02-03T05:48:01.738Z,2.40
2023-02-03T05:49:02.193Z,2.40
2023-02-03T05:50:02.283Z,2.40
2023-02-03T05:51:01.651Z,2.40
2023-02-03T05:52:02.329Z,2.60
2023-02-03T05:53:02.109Z,2.60
2023-02-03T05:54:01.957Z,2.60
2023-02-03T05:55:01.891Z,2.60
2023-02-03T05:56:02.111Z,2.60
2023-02-03T05:57:02.515Z,2.10
2023-02-03T05:58:02.211Z,2.10
2023-02-03T05:59:01.957Z,2.10
2023-02-03T06:00:02.433Z,2.10
2023-02-03T06:01:02.058Z,2.10
2023-02-03T06:02:02.928Z,2.10
2023-02-03T06:03:02.679Z,2.10
2023-02-03T06:04:02.992Z,2.10
2023-02-03T06:05:02.487Z,2.10
2023-02-03T06:06:02.532Z,2.10
2023-02-03T06:07:02.197Z,2.40
2023-02-03T06:08:02.121Z,2.40
2023-02-03T06:09:02.208Z,2.40
2023-02-03T06:10:02.455Z,2.40
2023-02-03T06:11:01.983Z,2.40
2023-02-03T06:12:01.866Z,1.70
2023-02-03T06:13:01.880Z,1.70
2023-02-03T06:14:02.087Z,1.70
2023-02-03T06:15:02.007Z,1.70
2023-02-03T06:16:02.058Z,1.70
2023-02-03T06:17:03.204Z,2.40
2023-02-03T06:18:02.840Z,2.40
2023-02-03T06:19:02.636Z,2.40
2023-02-03T06:20:03.043Z,2.40
2023-02-03T06:21:02.665Z,2.40
2023-02-03T06:22:03.046Z,2.10
2023-02-03T06:23:03.213Z,2.10
2023-02-03T06:24:02.881Z,2.10
2023-02-03T06:25:02.840Z,2.10
2023-02-03T06:26:02.677Z,2.10
2023-02-03T06:27:02.082Z,2.10
2023-02-03T06:28:02.664Z,2.10
2023-02-03T06:29:02.130Z,2.10
2023-02-03T06:30:02.638Z,2.10
2023-02-03T06:31:02.557Z,2.10
2023-02-03T06:32:02.872Z,1.90
2023-02-03T06:33:03.173Z,1.90
2023-02-03T06:34:02.781Z,1.90
2023-02-03T06:35:02.614Z,1.90
2023-02-03T06:36:03.160Z,1.90
2023-02-03T06:37:02.339Z,2.30
2023-02-03T06:38:02.315Z,2.30
2023-02-03T06:39:02.624Z,2.30
2023-02-03T06:40:02.206Z,2.30
2023-02-03T06:41:02.117Z,2.30
2023-02-03T06:42:01.976Z,2.30
2023-02-03T06:43:02.455Z,2.30
2023-02-03T06:44:02.448Z,2.30
2023-02-03T06:45:02.576Z,2.30
2023-02-03T06:46:02.167Z,2.30
2023-02-03T06:47:02.033Z,1.80
2023-02-03T06:48:02.168Z,1.80
2023-02-03T06:49:01.883Z,1.80
2023-02-03T06:50:02.009Z,1.80
2023-02-03T06:51:01.818Z,1.80
2023-02-03T06:52:02.533Z,1.80
2023-02-03T06:53:02.480Z,1.80
2023-02-03T06:54:02.666Z,1.80
2023-02-03T06:55:02.318Z,1.80
2023-02-03T06:56:02.236Z,1.80
2023-02-03T06:57:03.189Z,1.80
2023-02-03T06:58:03.214Z,1.80
2023-02-03T06:59:03.095Z,1.80
2023-02-03T07:00:02.657Z,1.80
2023-02-03T07:01:03.242Z,1.80
2023-02-03T07:02:02.278Z,1.80
2023-02-03T07:03:02.519Z,1.80
2023-02-03T07:04:02.434Z,1.80
2023-02-03T07:05:02.029Z,1.80
2023-02-03T07:06:01.911Z,1.80
2023-02-03T07:07:02.427Z,1.80
2023-02-03T07:08:02.457Z,1.80
2023-02-03T07:09:02.324Z,1.80
2023-02-03T07:10:02.250Z,1.80
2023-02-03T07:11:02.823Z,1.80
2023-02-03T07:12:02.148Z,1.70
2023-02-03T07:13:02.133Z,1.70
2023-02-03T07:14:02.285Z,1.70
2023-02-03T07:15:02.413Z,1.70
2023-02-03T07:16:02.202Z,1.70
2023-02-03T07:17:02.415Z,1.80
2023-02-03T07:18:02.491Z,1.80
2023-02-03T07:19:02.528Z,1.80
2023-02-03T07:20:02.138Z,1.80
2023-02-03T07:21:02.460Z,1.80
2023-02-03T07:22:02.102Z,1.90
2023-02-03T07:23:02.143Z,1.90
2023-02-03T07:24:02.391Z,1.90
2023-02-03T07:25:01.783Z,1.90
2023-02-03T07:26:01.729Z,1.90
2023-02-03T07:27:04.406Z,1.90
2023-02-03T07:28:02.458Z,1.90
2023-02-03T07:29:02.270Z,1.90
2023-02-03T07:30:02.453Z,1.90
2023-02-03T07:31:02.695Z,1.90
2023-02-03T07:32:01.886Z,1.80
2023-02-03T07:33:01.509Z,1.80
2023-02-03T07:34:02.006Z,1.80
2023-02-03T07:35:01.980Z,1.80
2023-02-03T07:36:01.693Z,1.80
2023-02-03T07:37:02.486Z,2.00
2023-02-03T07:38:02.618Z,2.00
2023-02-03T07:39:02.559Z,2.00
2023-02-03T07:40:02.215Z,2.00
2023-02-03T07:41:02.347Z,2.00
2023-02-03T07:42:02.617Z,2.40
2023-02-03T07:43:02.172Z,2.40
2023-02-03T07:44:02.740Z,2.40
2023-02-03T07:45:02.651Z,2.40
2023-02-03T07:46:02.283Z,2.40
2023-02-03T07:47:02.616Z,1.70
2023-02-03T07:48:02.410Z,1.70
2023-02-03T07:49:02.370Z,1.70
2023-02-03T07:50:02.372Z,1.70
2023-02-03T07:51:02.599Z,1.70
2023-02-03T07:52:01.975Z,1.40
2023-02-03T07:53:02.302Z,1.40
2023-02-03T07:54:01.841Z,1.40
2023-02-03T07:55:01.802Z,1.40
2023-02-03T07:56:01.872Z,1.40
2023-02-03T07:57:02.559Z,2.00
2023-02-03T07:58:03.399Z,2.00
2023-02-03T07:59:02.558Z,2.00
2023-02-03T08:00:02.324Z,2.00
2023-02-03T08:01:02.686Z,2.00
2023-02-03T08:02:02.717Z,1.60
2023-02-03T08:03:02.560Z,1.60
2023-02-03T08:04:02.756Z,1.60
2023-02-03T08:05:02.873Z,1.60
2023-02-03T08:06:02.693Z,1.60
2023-02-03T08:07:03.269Z,1.70
2023-02-03T08:08:03.312Z,1.70
2023-02-03T08:09:03.118Z,1.70
2023-02-03T08:10:03.277Z,1.70
2023-02-03T08:11:03.345Z,1.70
2023-02-03T08:12:02.930Z,1.70
2023-02-03T08:13:02.657Z,1.70
2023-02-03T08:14:02.554Z,1.70
2023-02-03T08:15:02.506Z,1.70
2023-02-03T08:16:02.484Z,1.70
2023-02-03T08:17:03.365Z,1.80
2023-02-03T08:18:03.261Z,1.80
2023-02-03T08:19:03.344Z,1.80
2023-02-03T08:20:03.233Z,1.80
2023-02-03T08:21:03.396Z,1.80
2023-02-03T08:22:02.775Z,2.50
2023-02-03T08:23:02.452Z,2.50
2023-02-03T08:24:02.490Z,2.50
2023-02-03T08:25:02.294Z,2.50
2023-02-03T08:26:02.773Z,2.50
2023-02-03T08:27:03.200Z,1.30
2023-02-03T08:28:02.790Z,1.30
2023-02-03T08:29:02.939Z,1.30
2023-02-03T08:30:03.195Z,1.30
2023-02-03T08:31:03.106Z,1.30
2023-02-03T08:32:05.305Z,2.00
2023-02-03T08:33:03.444Z,2.00
2023-02-03T08:34:02.820Z,2.00
2023-02-03T08:35:02.894Z,2.00
2023-02-03T08:36:02.963Z,2.00
2023-02-03T08:37:03.445Z,1.60
2023-02-03T08:38:03.270Z,1.60
2023-02-03T08:39:03.257Z,1.60
2023-02-03T08:40:03.419Z,1.60
2023-02-03T08:41:03.278Z,1.60
2023-02-03T08:42:02.442Z,1.70
2023-02-03T08:43:03.009Z,1.70
2023-02-03T08:44:02.533Z,1.70
2023-02-03T08:45:05.084Z,1.70
2023-02-03T08:46:02.884Z,1.70
2023-02-03T08:47:02.645Z,1.60
2023-02-03T08:48:03.202Z,1.60
2023-02-03T08:49:02.595Z,1.60
2023-02-03T08:50:03.268Z,1.60
2023-02-03T08:51:03.116Z,1.60
2023-02-03T08:52:02.575Z,1.60
2023-02-03T08:53:02.637Z,1.60
2023-02-03T08:54:02.556Z,1.60
2023-02-03T08:55:02.215Z,1.60
2023-02-03T08:56:02.791Z,1.60
2023-02-03T08:57:02.395Z,1.50
2023-02-03T08:58:03.040Z,1.50
2023-02-03T08:59:02.544Z,1.50
2023-02-03T09:00:03.040Z,1.50
2023-02-03T09:01:02.509Z,1.50
2023-02-03T09:02:01.900Z,1.60
2023-02-03T09:03:01.833Z,1.60
2023-02-03T09:04:02.359Z,1.60
2023-02-03T09:05:01.995Z,1.60
2023-02-03T09:06:02.073Z,1.60
2023-02-03T09:07:02.209Z,1.30
2023-02-03T09:08:02.173Z,1.30
2023-02-03T09:09:02.140Z,1.30
2023-02-03T09:10:02.626Z,1.30
2023-02-03T09:11:02.457Z,1.30
2023-02-03T09:12:02.639Z,1.70
2023-02-03T09:13:02.431Z,1.70
2023-02-03T09:14:02.340Z,1.70
2023-02-03T09:15:02.964Z,1.70
2023-02-03T09:16:02.630Z,1.70
2023-02-03T09:17:02.717Z,1.70
2023-02-03T09:18:02.745Z,1.70
2023-02-03T09:19:02.897Z,1.70
2023-02-03T09:20:02.736Z,1.70
2023-02-03T09:21:02.774Z,1.70
2023-02-03T09:22:02.559Z,1.90
2023-02-03T09:23:02.558Z,1.90
2023-02-03T09:24:02.692Z,1.90
2023-02-03T09:25:02.878Z,1.90
2023-02-03T09:26:02.851Z,1.90
2023-02-03T09:27:02.348Z,1.70
2023-02-03T09:28:02.841Z,1.70
2023-02-03T09:29:02.597Z,1.70
2023-02-03T09:30:02.709Z,1.70
2023-02-03T09:31:02.500Z,1.70
2023-02-03T09:32:02.998Z,2.00
2023-02-03T09:33:02.990Z,2.00
2023-02-03T09:34:03.230Z,2.00
2023-02-03T09:35:03.304Z,2.00
2023-02-03T09:36:03.180Z,2.00
2023-02-03T09:37:02.191Z,1.80
2023-02-03T09:38:02.367Z,1.80
2023-02-03T09:39:02.206Z,1.80
2023-02-03T09:40:02.242Z,1.80
2023-02-03T09:41:11.370Z,1.80
2023-02-03T09:42:02.723Z,2.00
2023-02-03T09:43:03.222Z,2.00
2023-02-03T09:44:02.867Z,2.00
2023-02-03T09:45:02.833Z,2.00
2023-02-03T09:46:03.162Z,2.00
2023-02-03T09:47:02.214Z,1.90
2023-02-03T09:48:02.149Z,1.90
2023-02-03T09:49:01.987Z,1.90
2023-02-03T09:50:02.425Z,1.90
2023-02-03T09:51:02.327Z,1.90
2023-02-03T09:52:02.810Z,2.00
2023-02-03T09:53:02.833Z,2.00
2023-02-03T09:54:02.690Z,2.00
2023-02-03T09:55:02.938Z,2.00
2023-02-03T09:56:02.811Z,2.00
2023-02-03T09:57:02.332Z,1.90
2023-02-03T09:58:02.210Z,1.90
2023-02-03T09:59:02.360Z,1.90
2023-02-03T10:00:02.346Z,1.90
2023-02-03T10:01:02.417Z,1.90
2023-02-03T10:02:02.298Z,2.40
2023-02-03T10:03:02.390Z,2.40
2023-02-03T10:04:02.404Z,2.40
2023-02-03T10:05:02.425Z,2.40
2023-02-03T10:06:02.320Z,2.40
2023-02-03T10:07:02.889Z,2.50
2023-02-03T10:08:03.017Z,2.50
2023-02-03T10:09:02.989Z,2.50
2023-02-03T10:10:02.971Z,2.50
2023-02-03T10:11:03.206Z,2.50
2023-02-03T10:12:03.170Z,2.10
2023-02-03T10:13:03.109Z,2.10
2023-02-03T10:14:02.980Z,2.10
2023-02-03T10:15:02.980Z,2.10
2023-02-03T10:16:02.928Z,2.10
2023-02-03T10:17:02.856Z,1.90
2023-02-03T10:18:02.612Z,1.90
2023-02-03T10:19:04.172Z,1.90
2023-02-03T10:20:02.873Z,1.90
2023-02-03T10:21:02.576Z,1.90
2023-02-03T10:22:03.256Z,2.00
2023-02-03T10:23:03.522Z,2.00
2023-02-03T10:24:03.375Z,2.00
2023-02-03T10:25:03.262Z,2.00
2023-02-03T10:26:03.341Z,2.00
2023-02-03T10:27:03.376Z,2.10
2023-02-03T10:28:03.512Z,2.10
2023-02-03T10:29:03.227Z,2.10
2023-02-03T10:30:03.288Z,2.10
2023-02-03T10:31:03.421Z,2.10
2023-02-03T10:32:03.021Z,2.10
2023-02-03T10:33:02.709Z,2.10
2023-02-03T10:34:02.729Z,2.10
2023-02-03T10:35:02.563Z,2.10
2023-02-03T10:36:02.601Z,2.10
2023-02-03T10:37:02.568Z,2.10
2023-02-03T10:38:02.586Z,2.10
2023-02-03T10:39:02.278Z,2.10
2023-02-03T10:40:02.278Z,2.10
2023-02-03T10:41:02.369Z,2.10
2023-02-03T10:42:02.897Z,2.00
2023-02-03T10:43:02.919Z,2.00
2023-02-03T10:44:02.792Z,2.00
2023-02-03T10:45:03.044Z,2.00
2023-02-03T10:46:02.905Z,2.00
2023-02-03T10:47:03.503Z,2.10
2023-02-03T10:48:03.110Z,2.10
2023-02-03T10:49:03.279Z,2.10
2023-02-03T10:50:03.238Z,2.10
2023-02-03T10:51:03.262Z,2.10
2023-02-03T10:52:02.916Z,2.00
2023-02-03T10:53:02.524Z,2.00
2023-02-03T10:54:02.914Z,2.00
2023-02-03T10:55:02.959Z,2.00
2023-02-03T10:56:02.432Z,2.00
2023-02-03T10:57:02.965Z,2.20
2023-02-03T10:58:02.578Z,2.20
2023-02-03T10:59:03.001Z,2.20
2023-02-03T11:00:02.814Z,2.20
2023-02-03T11:01:02.456Z,2.20
2023-02-03T11:02:02.288Z,2.10
2023-02-03T11:03:02.175Z,2.10
2023-02-03T11:04:02.238Z,2.10
2023-02-03T11:05:01.974Z,2.10
2023-02-03T11:06:01.954Z,2.10
2023-02-03T11:07:02.521Z,2.20
2023-02-03T11:08:02.234Z,2.20
2023-02-03T11:09:02.149Z,2.20
2023-02-03T11:10:02.154Z,2.20
2023-02-03T11:11:02.087Z,2.20
2023-02-03T11:12:02.797Z,2.00
2023-02-03T11:13:02.744Z,2.00
2023-02-03T11:14:02.808Z,2.00
2023-02-03T11:15:02.713Z,2.00
2023-02-03T11:16:02.557Z,2.00
2023-02-03T11:17:02.255Z,2.10
2023-02-03T11:18:01.917Z,2.10
2023-02-03T11:19:01.853Z,2.10
2023-02-03T11:20:01.864Z,2.10
2023-02-03T11:21:01.816Z,2.10
2023-02-03T11:22:02.528Z,2.10
2023-02-03T11:23:02.032Z,2.10
2023-02-03T11:24:01.983Z,2.10
2023-02-03T11:25:02.290Z,2.10
2023-02-03T11:26:02.395Z,2.10
2023-02-03T11:27:03.126Z,2.00
2023-02-03T11:28:02.757Z,2.00
2023-02-03T11:29:02.912Z,2.00
2023-02-03T11:30:02.589Z,2.00
2023-02-03T11:31:02.571Z,2.00
2023-02-03T11:32:03.297Z,2.00
2023-02-03T11:33:02.926Z,2.00
2023-02-03T11:34:02.531Z,2.00
2023-02-03T11:35:02.805Z,2.00
2023-02-03T11:36:02.656Z,2.00
2023-02-03T11:37:01.568Z,2.00
2023-02-03T11:38:01.623Z,2.00
2023-02-03T11:39:01.574Z,2.00
2023-02-03T11:40:01.748Z,2.00
2023-02-03T11:41:02.216Z,2.00
2023-02-03T11:42:02.242Z,2.20
2023-02-03T11:43:02.879Z,2.20
2023-02-03T11:44:02.666Z,2.20
2023-02-03T11:45:02.472Z,2.20
2023-02-03T11:46:02.303Z,2.20
2023-02-03T11:47:02.379Z,2.50
2023-02-03T11:48:02.964Z,2.50
2023-02-03T11:49:02.674Z,2.50
2023-02-03T11:50:02.715Z,2.50
2023-02-03T11:51:03.008Z,2.50
2023-02-03T11:52:02.597Z,2.40
2023-02-03T11:53:02.144Z,2.40
2023-02-03T11:54:01.650Z,2.40
2023-02-03T11:55:02.197Z,2.40
2023-02-03T11:56:02.274Z,2.40
2023-02-03T11:57:01.846Z,2.90
2023-02-03T11:58:02.425Z,2.90
2023-02-03T11:59:02.170Z,2.90
2023-02-03T12:00:02.218Z,2.90
2023-02-03T12:01:02.367Z,2.90
2023-02-03T12:02:02.245Z,3.30
2023-02-03T12:03:02.722Z,3.30
2023-02-03T12:04:02.762Z,3.30
2023-02-03T12:05:02.427Z,3.30
2023-02-03T12:06:02.453Z,3.30
2023-02-03T12:07:02.932Z,3.60
2023-02-03T12:08:02.759Z,3.60
2023-02-03T12:09:02.428Z,3.60
2023-02-03T12:10:02.516Z,3.60
2023-02-03T12:11:02.245Z,3.60
2023-02-03T12:12:02.782Z,3.10
2023-02-03T12:13:02.515Z,3.10
2023-02-03T12:14:02.477Z,3.10
2023-02-03T12:15:02.454Z,3.10
2023-02-03T12:16:02.885Z,3.30
2023-02-03T12:17:02.231Z,3.30
2023-02-03T12:18:02.830Z,3.30
2023-02-03T12:19:02.813Z,3.30
2023-02-03T12:20:02.940Z,3.30
2023-02-03T12:21:02.985Z,4.10
2023-02-03T12:22:02.936Z,4.10
2023-02-03T12:23:02.691Z,4.10
2023-02-03T12:24:02.676Z,4.10
2023-02-03T12:25:03.280Z,4.10
2023-02-03T12:26:02.990Z,4.20
2023-02-03T12:27:03.036Z,4.20
2023-02-03T12:28:02.787Z,4.20
2023-02-03T12:29:03.401Z,4.20
2023-02-03T12:30:03.186Z,4.20
2023-02-03T12:31:03.298Z,4.00
2023-02-03T12:32:02.976Z,4.00
2023-02-03T12:33:02.665Z,4.00
2023-02-03T12:34:02.683Z,4.00
2023-02-03T12:35:02.646Z,4.00
2023-02-03T12:36:02.362Z,4.20
2023-02-03T12:37:02.519Z,4.20
2023-02-03T12:38:02.858Z,4.20
2023-02-03T12:39:03.096Z,4.20
2023-02-03T12:40:02.773Z,4.20
2023-02-03T12:41:02.719Z,4.60
2023-02-03T12:42:02.663Z,4.60
2023-02-03T12:43:02.218Z,4.60
2023-02-03T12:44:02.119Z,4.60
2023-02-03T12:45:02.134Z,4.60
2023-02-03T12:46:02.526Z,6.30
2023-02-03T12:47:02.631Z,6.30
2023-02-03T12:48:03.186Z,6.30
2023-02-03T12:49:02.778Z,6.30
2023-02-03T12:50:03.017Z,6.30
2023-02-03T12:51:03.264Z,6.00
2023-02-03T12:52:03.252Z,6.00
2023-02-03T12:53:02.905Z,6.00
2023-02-03T12:54:03.322Z,6.00
2023-02-03T12:55:02.918Z,6.00
2023-02-03T12:56:03.155Z,6.00
2023-02-03T12:57:03.325Z,6.00
2023-02-03T12:58:03.118Z,6.00
2023-02-03T12:59:03.126Z,6.00
2023-02-03T13:00:03.162Z,6.00
2023-02-03T13:01:03.136Z,5.30
2023-02-03T13:02:03.206Z,5.30
2023-02-03T13:03:02.064Z,5.30
2023-02-03T13:04:02.041Z,5.30
2023-02-03T13:05:02.396Z,5.30
2023-02-03T13:06:02.296Z,7.40
2023-02-03T13:07:02.141Z,7.40
2023-02-03T13:08:02.523Z,7.40
2023-02-03T13:09:02.316Z,7.40
2023-02-03T13:10:02.069Z,7.40
2023-02-03T13:11:02.087Z,6.40
2023-02-03T13:12:02.759Z,6.40
2023-02-03T13:13:02.723Z,6.40
2023-02-03T13:14:02.455Z,6.40
2023-02-03T13:15:02.500Z,6.40
2023-02-03T13:16:02.087Z,7.30
2023-02-03T13:17:02.794Z,7.30
2023-02-03T13:18:02.658Z,7.30